KADM

Ardmore Municipal Airport

Ardmore, Oklahoma, USA
METAR KADM 181355Z 01003KT 10SM SCT110 26/24 A3002
Observed Flight Rules
Aug-18 @ 13:55 UTC (57 minutes ago) Visual Flight Rules
Wind Visibility Clouds
10° at 3 knots 10 miles
  • Scattered at 11,000' AGL
Temperatures Readings
Current 26°C / 79°F
Dewpoint 24°C / 75°F
Humidity 89%
Altimeter 30.02" Hg
Pressure 1017 hPa
Elevation 232
METAR KADM 181355Z 01003KT 10SM SCT110 26/24 A3002
Observed Flight Rules
Aug-18 @ 13:55 UTC
(57 minutes ago)
VFR
Wind Visibility
10° at 3 knots 10 miles
Clouds
  • Scattered at 11,000' AGL
Temperature Dewpoint
26°C / 79°F 24°C / 75°F
Humidity Altimeter Pressure
89% 30.02" Hg 1017 hPa